Latest Coastal Weather Observations for Walpole North

IDW60701

Issued at 2:52 pm WST Sunday 21 December 2014 (issued every 10 minutes, with the page automatically refreshed every 10 minutes)

About coastal observations | Map of coastal stations | Coastal observations for WA | Marine services | Other Formats
Station Details ID: 009998 Name: NORTH WALPOLE Lat: -34.95 Lon: 116.72 Height: 73.0 m
Data from the previous 72 hours. | See also: Recent months at Walpole North
Date/Time
WST
Temp

°C
Wind Pressure Rain
since 9am
mm
Weather Cloud Vis
km
Sea
Height
m
Swell
Dir
 
Speed
knots
Gust
knots
hPa Trend Height
m
Period
s
Dir
21/02:30pm 19.3 SSE 8 15 1019.7 - 0.0 - - - - - - -
21/02:00pm 18.7 SSE 7 12 1019.9 - 0.0 - - - - - - -
21/01:30pm 18.4 SSE 9 14 1020.0 - 0.0 - - - - - - -
21/01:00pm 18.8 SE 10 16 1020.1 - 0.0 - - - - - - -
21/12:30pm 17.5 SSE 8 15 1020.6 - 0.0 - - - - - - -
21/12:00pm 17.6 SSE 7 16 1021.1 - 0.0 - - - - - - -
21/11:30am 17.8 SSE 8 14 1020.8 - 0.0 - - - - - - -
21/11:00am 17.3 SSE 7 15 1020.9 - 0.0 - - - - - - -
21/10:30am 16.8 SSE 7 14 1021.0 - 0.0 - - - - - - -
21/10:00am 16.6 SE 8 15 1021.0 - 0.0 - - - - - - -
21/09:30am 16.6 S 6 13 1021.1 - 0.0 - - - - - - -
21/09:00am 16.0 SE 11 17 1020.9 - 3.0 - - - - - - -
21/08:30am 15.5 SE 11 17 1021.0 - 3.0 - - - - - - -
21/08:00am 15.0 SE 11 16 1020.8 - 3.0 - - - - - - -
21/07:30am 15.1 SE 9 14 1020.7 - 3.0 - - - - - - -
21/07:00am 14.7 SE 9 14 1020.6 - 3.0 - - - - - - -
21/06:30am 14.2 SE 9 15 1020.4 - 3.0 - - - - - - -
21/06:00am 14.0 SE 9 15 1020.0 - 3.0 - - - - - - -
21/05:30am 14.1 SE 9 14 1019.5 - 3.0 - - - - - - -
21/05:00am 14.0 SE 8 10 1019.0 - 3.0 - - - - - - -
21/04:30am 14.0 SSE 5 10 1019.0 - 3.0 - - - - - - -
21/04:00am 14.1 SE 9 17 1018.6 - 3.0 - - - - - - -
21/03:30am 14.3 SE 8 11 1018.3 - 3.0 - - - - - - -
21/03:00am 14.2 SE 7 11 1018.2 - 3.0 Recent precip. - - - - - -
21/02:30am 14.2 SE 11 15 1018.3 - 2.8 - - - - - - -
21/02:00am 14.4 SE 11 17 1018.5 - 2.8 - - - - - - -
21/01:30am 14.2 SE 12 18 1018.6 - 2.8 - - - - - - -
21/01:00am 14.7 SE 10 14 1018.5 - 2.4 - - - - - - -
21/12:30am 14.7 SE 9 14 1018.4 - 2.2 - - - - - - -
21/12:00am 14.6 SE 9 15 1018.3 - 2.2 Recent precip. - - - - - -
 
Date/Time
WST
Temp

°C
Wind Pressure Rain
since 9am
mm
Weather Cloud Vis
km
Sea
Height
m
Swell
Dir
 
Speed
knots
Gust
knots
hPa Trend Height
m
Period
s
Dir
20/11:30pm 14.6 SE 13 17 1018.4 - 2.2 - - - - - - -
20/11:00pm 14.9 SE 11 17 1018.4 - 1.8 - - - - - - -
20/10:30pm 15.3 SSE 10 15 1018.3 - 1.4 - - - - - - -
20/10:00pm 15.3 SSE 9 16 1018.1 - 1.2 - - - - - - -
20/09:30pm 15.4 SE 13 20 1017.9 - 0.6 - - - - - - -
20/09:00pm 16.0 SE 10 15 1017.6 - 0.4 - - - - - - -
20/08:30pm 16.6 SE 11 16 1017.3 - 0.4 - - - - - - -
20/08:00pm 16.7 SE 9 15 1016.8 - 0.4 - - - - - - -
20/07:30pm 16.4 SE 10 15 1016.6 - 0.4 - - - - - - -
20/07:00pm 16.2 SE 11 15 1016.4 - 0.4 - - - - - - -
20/06:30pm 16.7 SE 11 16 1016.2 - 0.4 - - - - - - -
20/06:00pm 17.1 SE 11 16 1015.6 - 0.4 - - - - - - -
20/05:30pm 16.9 SSE 11 16 1015.1 - 0.4 - - - - - - -
20/05:00pm 17.9 SE 11 18 1014.6 - 0.4 - - - - - - -
20/04:30pm 18.4 SE 14 21 1014.5 - 0.0 - - - - - - -
20/04:00pm 18.8 SE 13 20 1014.3 - 0.0 - - - - - - -
20/03:30pm 21.3 SSE 10 18 1014.1 - 0.0 - - - - - - -
20/03:00pm 20.4 SE 13 25 1014.1 - 0.0 - - - - - - -
20/02:30pm 19.1 SSE 13 21 1014.2 - 0.0 - - - - - - -
20/02:00pm 20.5 SSE 10 23 1013.9 - 0.0 - - - - - - -
20/01:30pm 19.5 S 8 15 1013.6 - 0.0 - - - - - - -
20/01:00pm 19.4 SSE 10 20 1013.6 - 0.0 - - - - - - -
20/12:30pm 19.0 SSE 13 20 1013.5 - 0.0 - - - - - - -
20/12:00pm 19.2 S 9 15 1013.1 - 0.0 - - - - - - -
20/11:30am 17.8 S 8 16 1012.8 - 0.0 - - - - - - -
20/11:00am 17.7 S 8 14 1012.5 - 0.0 - - - - - - -
20/10:30am 17.9 S 9 16 1012.4 - 0.0 - - - - - - -
20/10:00am 18.1 SSE 8 16 1012.1 - 0.0 - - - - - - -
20/09:30am 17.2 S 8 14 1011.9 - 0.0 - - - - - - -
20/09:00am 17.9 SSE 10 16 1011.5 - 1.6 - - - - - - -
20/08:30am 18.0 SSE 7 13 1011.6 - 1.6 - - - - - - -
20/08:00am 18.1 SSE 9 19 1011.4 - 1.6 - - - - - - -
20/07:30am 18.2 SSE 10 16 1011.2 - 0.8 - - - - - - -
20/07:00am 18.4 SSE 6 11 1011.2 - 0.8 - - - - - - -
20/06:30am 18.4 SE 8 10 1010.7 - 0.8 - - - - - - -
20/06:00am 17.8 SE 8 11 1010.5 - 0.6 - - - - - - -
20/05:30am 17.4 SE 7 10 1010.4 - 0.6 - - - - - - -
20/05:00am 16.3 ESE 5 7 1009.8 - 0.6 - - - - - - -
20/04:30am 16.1 ESE 6 8 1009.6 - 0.6 - - - - - - -
20/04:00am 16.2 ESE 7 9 1009.5 - 0.6 - - - - - - -
20/03:30am 15.6 ESE 5 6 1009.5 - 0.6 - - - - - - -
20/03:00am 15.3 ESE 5 7 1009.5 - 0.6 - - - - - - -
20/02:30am 15.2 SE 7 9 1009.8 - 0.6 - - - - - - -
20/02:00am 15.0 SE 5 7 1010.7 - 0.6 - - - - - - -
20/01:30am 15.0 ESE 4 6 1011.3 - 0.6 - - - - - - -
20/01:00am 15.6 CALM 0 0 1012.1 - 0.6 - - - - - - -
20/12:30am 16.1 ESE 5 8 1011.7 - 0.6 - - - - - - -
20/12:00am 15.9 ENE 3 5 1012.5 - 0.6 - - - - - - -
 
Date/Time
WST
Temp

°C
Wind Pressure Rain
since 9am
mm
Weather Cloud Vis
km
Sea
Height
m
Swell
Dir
 
Speed
knots
Gust
knots
hPa Trend Height
m
Period
s
Dir
19/11:30pm 15.6 E 4 6 1012.3 - 0.6 - - - - - - -
19/11:00pm 16.0 ESE 4 5 1012.8 - 0.6 - - - - - - -
19/10:30pm 16.2 ESE 5 7 1013.0 - 0.6 - - - - - - -
19/10:00pm 16.3 SE 5 8 1012.6 - 0.6 - - - - - - -
19/09:30pm 16.5 ESE 4 6 1013.2 - 0.6 - - - - - - -
19/09:00pm 17.1 ESE 5 8 1012.9 - 0.6 - - - - - - -
19/08:30pm 17.2 ESE 7 12 1013.0 - 0.6 - - - - - - -
19/08:00pm 17.4 SE 8 14 1013.0 - 0.6 - - - - - - -
19/07:30pm 17.6 SE 9 13 1012.6 - 0.6 - - - - - - -
19/07:00pm 18.3 SE 11 17 1012.7 - 0.6 - - - - - - -
19/06:30pm 19.3 SE 10 18 1012.5 - 0.6 - - - - - - -
19/06:00pm 20.3 SE 11 16 1012.3 - 0.0 - - - - - - -
19/05:30pm 21.7 SE 9 19 1012.2 - 0.0 - - - - - - -
19/05:00pm 21.8 SSE 8 16 1012.1 - 0.0 - - - - - - -
19/04:30pm 22.2 SSE 9 14 1012.2 - 0.0 - - - - - - -
19/04:00pm 22.8 SSE 8 14 1012.5 - 0.0 - - - - - - -
19/03:30pm 24.9 SE 9 14 1012.4 - 0.0 - - - - - - -
19/03:00pm 25.0 SE 11 16 1012.9 - 0.0 - - - - - - -
19/02:30pm 24.3 SSE 8 14 1013.1 - 0.0 - - - - - - -
19/02:00pm 24.1 S 9 15 1013.6 - 0.0 - - - - - - -
19/01:30pm 24.3 S 8 14 1013.9 - 0.0 - - - - - - -
19/01:00pm 23.6 S 8 16 1014.3 - 0.0 - - - - - - -
19/12:30pm 24.2 S 9 18 1014.7 - 0.0 - - - - - - -
19/12:00pm 23.4 S 10 16 1015.3 - 0.0 - - - - - - -
19/11:30am 23.0 S 8 13 1015.6 - 0.0 - - - - - - -
19/11:00am 23.1 S 6 11 1016.1 - 0.0 - - - - - - -
19/10:30am 21.6 S 9 13 1016.6 - 0.0 - - - - - - -
19/10:00am 21.5 S 7 13 1016.8 - 0.0 - - - - - - -
19/09:30am 21.9 SE 6 10 1017.2 - 0.0 - - - - - - -
19/09:00am 22.1 E 6 11 1017.2 - 0.0 - - - - - - -
19/08:30am 21.5 E 7 11 1017.6 - 0.0 - - - - - - -
19/08:00am 19.0 E 6 8 1017.9 - 0.0 - - - - - - -
19/07:30am 17.4 E 5 10 1018.0 - 0.0 - - - - - - -
19/07:00am 15.8 NNE 1 4 1018.3 - 0.0 - - - - - - -
19/06:30am 13.4 CALM 0 3 1018.3 - 0.0 - - - - - - -
19/06:00am 13.0 CALM 0 0 1018.0 - 0.0 - - - - - - -
19/05:30am 11.6 SE 4 5 1017.8 - 0.0 - - - - - - -
19/05:00am 11.2 E 3 4 1017.7 - 0.0 - - - - - - -
19/04:30am 11.6 E 3 5 1017.5 - 0.0 - - - - - - -
19/04:00am 11.8 E 5 6 1017.2 - 0.0 - - - - - - -
19/03:30am 11.9 E 4 6 1017.1 - 0.0 - - - - - - -
19/03:00am 12.2 ENE 4 6 1017.1 - 0.0 - - - - - - -
19/02:30am 12.2 ENE 4 5 1017.2 - 0.0 - - - - - - -
19/02:00am 12.0 CALM 0 0 1017.2 - 0.0 - - - - - - -
19/01:30am 12.5 CALM 0 0 1017.4 - 0.0 - - - - - - -
19/01:00am 12.8 ENE 3 6 1017.7 - 0.0 - - - - - - -
19/12:30am 13.2 E 4 6 1018.1 - 0.0 - - - - - - -
19/12:00am 13.0 E 3 5 1018.2 - 0.0 - - - - - - -
 
Date/Time
WST
Temp

°C
Wind Pressure Rain
since 9am
mm
Weather Cloud Vis
km
Sea
Height
m
Swell
Dir
 
Speed
knots
Gust
knots
hPa Trend Height
m
Period
s
Dir
18/11:30pm 13.5 ENE 5 7 1018.4 - 0.0 - - - - - - -
18/11:00pm 13.7 E 4 6 1018.5 - 0.0 - - - - - - -
18/10:30pm 14.1 ENE 4 6 1018.8 - 0.0 - - - - - - -
18/10:00pm 14.3 E 5 6 1018.7 - 0.0 - - - - - - -
18/09:30pm 14.4 E 4 5 1018.6 - 0.0 - - - - - - -
18/09:00pm 13.9 E 5 6 1018.5 - 0.0 - - - - - - -
18/08:30pm 14.2 ESE 5 6 1018.3 - 0.0 - - - - - - -
18/08:00pm 14.8 E 4 6 1018.2 - 0.0 - - - - - - -
18/07:30pm 15.6 ESE 6 10 1018.2 - 0.0 - - - - - - -
18/07:00pm 16.6 SE 8 12 1017.9 - 0.0 - - - - - - -
18/06:30pm 17.6 SSE 7 11 1017.8 - 0.0 - - - - - - -
18/06:00pm 18.5 SSE 6 10 1017.6 - 0.0 - - - - - - -
18/05:30pm 19.6 SSE 7 11 1017.3 - 0.0 - - - - - - -
18/05:00pm 19.3 SSE 6 11 1017.3 - 0.0 - - - - - - -
18/04:30pm 19.5 SSE 6 13 1017.3 - 0.0 - - - - - - -
18/04:00pm 20.2 SSE 8 14 1017.4 - 0.0 - - - - - - -
18/03:30pm 20.6 SSE 7 13 1017.5 - 0.0 - - - - - - -
18/03:00pm 20.2 S 7 11 1017.6 - 0.0 - - - - - - -

Other Formats:

Comma delimited format used in spreadsheet applications
http://www.bom.gov.au/fwo/IDW60701/IDW60701.95647.axf

JavaScript Object Notation format (JSON) in row-major order
http://www.bom.gov.au/fwo/IDW60701/IDW60701.95647.json